sensor_id;sensor_type;location;lat;lon;timestamp;pressure;altitude;pressure_sealevel;temperature;humidity
64460;BME280;50828;53.756;21.140;2023-04-01T00:04:58;97928.28;;;7.89;68.25
64460;BME280;50828;53.756;21.140;2023-04-01T00:10:08;97931.61;;;7.89;68.21
64460;BME280;50828;53.756;21.140;2023-04-01T00:15:16;97926.24;;;7.88;68.36
64460;BME280;50828;53.756;21.140;2023-04-01T00:20:24;97924.88;;;7.87;68.37
64460;BME280;50828;53.756;21.140;2023-04-01T00:25:33;97921.10;;;7.86;68.50
64460;BME280;50828;53.756;21.140;2023-04-01T00:30:41;97921.70;;;7.85;68.63
64460;BME280;50828;53.756;21.140;2023-04-01T00:35:49;97925.02;;;7.85;68.39
64460;BME280;50828;53.756;21.140;2023-04-01T00:40:59;97921.58;;;7.84;68.61
64460;BME280;50828;53.756;21.140;2023-04-01T00:46:06;97922.08;;;7.84;68.67
64460;BME280;50828;53.756;21.140;2023-04-01T00:51:18;97919.58;;;7.85;68.83
64460;BME280;50828;53.756;21.140;2023-04-01T00:56:32;97921.16;;;7.85;68.91
64460;BME280;50828;53.756;21.140;2023-04-01T01:01:43;97923.08;;;7.85;69.10
64460;BME280;50828;53.756;21.140;2023-04-01T01:06:56;97927.34;;;7.84;68.87
64460;BME280;50828;53.756;21.140;2023-04-01T01:12:13;97921.41;;;7.84;68.98
64460;BME280;50828;53.756;21.140;2023-04-01T01:17:29;97918.06;;;7.84;69.05
64460;BME280;50828;53.756;21.140;2023-04-01T01:22:49;97914.36;;;7.84;69.34
64460;BME280;50828;53.756;21.140;2023-04-01T01:28:09;97918.10;;;7.84;69.28
64460;BME280;50828;53.756;21.140;2023-04-01T01:33:38;97919.09;;;7.85;69.38
64460;BME280;50828;53.756;21.140;2023-04-01T01:38:49;97919.59;;;7.85;69.58
64460;BME280;50828;53.756;21.140;2023-04-01T01:43:58;97915.35;;;7.86;69.49
64460;BME280;50828;53.756;21.140;2023-04-01T01:49:09;97910.93;;;7.86;69.46
64460;BME280;50828;53.756;21.140;2023-04-01T01:54:18;97906.40;;;7.86;69.74
64460;BME280;50828;53.756;21.140;2023-04-01T01:59:26;97905.59;;;7.88;69.77
64460;BME280;50828;53.756;21.140;2023-04-01T02:04:36;97907.63;;;7.88;69.91
64460;BME280;50828;53.756;21.140;2023-04-01T02:09:45;97905.17;;;7.89;69.87
64460;BME280;50828;53.756;21.140;2023-04-01T02:14:55;97906.21;;;7.89;69.89
64460;BME280;50828;53.756;21.140;2023-04-01T02:20:11;97901.38;;;7.90;70.04
64460;BME280;50828;53.756;21.140;2023-04-01T02:25:25;97899.19;;;7.92;70.05
64460;BME280;50828;53.756;21.140;2023-04-01T02:30:35;97900.94;;;7.92;70.04
64460;BME280;50828;53.756;21.140;2023-04-01T02:35:45;97904.73;;;7.93;70.25
64460;BME280;50828;53.756;21.140;2023-04-01T02:40:59;97905.09;;;7.93;70.19
64460;BME280;50828;53.756;21.140;2023-04-01T02:46:08;97906.12;;;7.93;70.03
64460;BME280;50828;53.756;21.140;2023-04-01T02:51:16;97901.50;;;7.91;70.37
64460;BME280;50828;53.756;21.140;2023-04-01T02:56:25;97900.47;;;7.91;70.25
64460;BME280;50828;53.756;21.140;2023-04-01T03:01:34;97901.56;;;7.90;70.26
64460;BME280;50828;53.756;21.140;2023-04-01T03:06:42;97905.12;;;7.89;70.41
64460;BME280;50828;53.756;21.140;2023-04-01T03:11:51;97905.80;;;7.90;70.42
64460;BME280;50828;53.756;21.140;2023-04-01T03:16:59;97907.79;;;7.92;70.52
64460;BME280;50828;53.756;21.140;2023-04-01T03:22:07;97910.36;;;7.93;70.54
64460;BME280;50828;53.756;21.140;2023-04-01T03:27:15;97905.61;;;7.93;70.48
64460;BME280;50828;53.756;21.140;2023-04-01T03:32:24;97908.49;;;7.94;70.65
64460;BME280;50828;53.756;21.140;2023-04-01T03:37:34;97909.33;;;7.95;70.70
64460;BME280;50828;53.756;21.140;2023-04-01T03:42:42;97908.77;;;7.95;70.64
64460;BME280;50828;53.756;21.140;2023-04-01T03:47:51;97913.47;;;7.96;70.62
64460;BME280;50828;53.756;21.140;2023-04-01T03:53:00;97912.81;;;7.96;70.66
64460;BME280;50828;53.756;21.140;2023-04-01T03:58:09;97910.66;;;7.93;70.73
64460;BME280;50828;53.756;21.140;2023-04-01T04:03:17;97915.23;;;7.93;70.65
64460;BME280;50828;53.756;21.140;2023-04-01T04:08:27;97917.67;;;7.90;70.79
64460;BME280;50828;53.756;21.140;2023-04-01T04:13:35;97928.10;;;7.89;70.69
64460;BME280;50828;53.756;21.140;2023-04-01T04:18:44;97926.30;;;7.87;70.87
64460;BME280;50828;53.756;21.140;2023-04-01T04:23:53;97925.67;;;7.83;70.83
64460;BME280;50828;53.756;21.140;2023-04-01T04:29:01;97931.92;;;7.81;70.87
64460;BME280;50828;53.756;21.140;2023-04-01T04:34:10;97931.04;;;7.79;71.00
64460;BME280;50828;53.756;21.140;2023-04-01T04:39:18;97932.81;;;7.76;71.08
64460;BME280;50828;53.756;21.140;2023-04-01T04:44:28;97931.29;;;7.72;71.22
64460;BME280;50828;53.756;21.140;2023-04-01T04:49:36;97939.61;;;7.70;71.19
64460;BME280;50828;53.756;21.140;2023-04-01T04:54:46;97942.52;;;7.69;71.28
64460;BME280;50828;53.756;21.140;2023-04-01T04:59:54;97942.31;;;7.67;71.23
64460;BME280;50828;53.756;21.140;2023-04-01T05:05:22;97941.71;;;7.68;71.41
64460;BME280;50828;53.756;21.140;2023-04-01T05:10:30;97949.90;;;7.68;71.49
64460;BME280;50828;53.756;21.140;2023-04-01T05:15:39;97947.93;;;7.69;71.50
64460;BME280;50828;53.756;21.140;2023-04-01T05:20:52;97948.24;;;7.70;71.59
64460;BME280;50828;53.756;21.140;2023-04-01T05:26:04;97949.30;;;7.72;71.66
64460;BME280;50828;53.756;21.140;2023-04-01T05:31:13;97952.23;;;7.73;71.57
64460;BME280;50828;53.756;21.140;2023-04-01T05:36:24;97954.25;;;7.75;71.63
64460;BME280;50828;53.756;21.140;2023-04-01T05:41:33;97953.69;;;7.75;71.76
64460;BME280;50828;53.756;21.140;2023-04-01T05:46:42;97957.30;;;7.76;71.67
64460;BME280;50828;53.756;21.140;2023-04-01T05:51:57;97963.32;;;7.75;71.83
64460;BME280;50828;53.756;21.140;2023-04-01T05:57:06;97965.95;;;7.76;71.89
64460;BME280;50828;53.756;21.140;2023-04-01T06:02:14;97971.90;;;7.76;71.96
64460;BME280;50828;53.756;21.140;2023-04-01T06:07:24;97971.09;;;7.74;71.87
64460;BME280;50828;53.756;21.140;2023-04-01T06:12:42;97974.34;;;7.73;72.07
64460;BME280;50828;53.756;21.140;2023-04-01T06:23:43;97976.64;;;7.70;72.10
64460;BME280;50828;53.756;21.140;2023-04-01T06:29:35;97981.38;;;7.69;72.11
64460;BME280;50828;53.756;21.140;2023-04-01T06:35:11;97990.66;;;7.69;72.22
64460;BME280;50828;53.756;21.140;2023-04-01T06:46:04;97992.09;;;7.69;72.32
64460;BME280;50828;53.756;21.140;2023-04-01T06:51:51;97999.02;;;7.68;72.30
64460;BME280;50828;53.756;21.140;2023-04-01T06:57:32;97999.73;;;7.67;72.31
64460;BME280;50828;53.756;21.140;2023-04-01T07:02:45;98003.45;;;7.66;72.32
64460;BME280;50828;53.756;21.140;2023-04-01T07:08:03;98009.31;;;7.65;72.35
64460;BME280;50828;53.756;21.140;2023-04-01T07:13:15;98008.29;;;7.65;72.45
64460;BME280;50828;53.756;21.140;2023-04-01T07:18:34;98011.88;;;7.63;72.35
64460;BME280;50828;53.756;21.140;2023-04-01T07:23:47;98016.31;;;7.63;72.63
64460;BME280;50828;53.756;21.140;2023-04-01T07:29:16;98017.27;;;7.62;72.58
64460;BME280;50828;53.756;21.140;2023-04-01T07:34:34;98019.19;;;7.61;72.57
64460;BME280;50828;53.756;21.140;2023-04-01T07:39:55;98024.27;;;7.62;72.59
64460;BME280;50828;53.756;21.140;2023-04-01T07:45:20;98030.52;;;7.62;72.60
64460;BME280;50828;53.756;21.140;2023-04-01T07:50:35;98033.09;;;7.63;72.67
64460;BME280;50828;53.756;21.140;2023-04-01T07:55:53;98038.16;;;7.63;72.67
64460;BME280;50828;53.756;21.140;2023-04-01T08:01:16;98042.03;;;7.63;72.86
64460;BME280;50828;53.756;21.140;2023-04-01T08:06:31;98050.42;;;7.64;72.60
64460;BME280;50828;53.756;21.140;2023-04-01T08:11:51;98050.63;;;7.63;72.93
64460;BME280;50828;53.756;21.140;2023-04-01T08:17:30;98050.16;;;7.62;72.85
64460;BME280;50828;53.756;21.140;2023-04-01T08:22:42;98057.35;;;7.62;72.84
64460;BME280;50828;53.756;21.140;2023-04-01T08:28:03;98059.20;;;7.63;72.94
64460;BME280;50828;53.756;21.140;2023-04-01T08:33:21;98061.01;;;7.65;73.06
64460;BME280;50828;53.756;21.140;2023-04-01T08:38:43;98069.35;;;7.69;73.06
64460;BME280;50828;53.756;21.140;2023-04-01T08:44:12;98070.48;;;7.70;73.06
64460;BME280;50828;53.756;21.140;2023-04-01T08:49:50;98077.37;;;7.72;73.16
64460;BME280;50828;53.756;21.140;2023-04-01T08:55:43;98078.98;;;7.75;73.14
64460;BME280;50828;53.756;21.140;2023-04-01T09:00:56;98082.10;;;7.75;73.04
64460;BME280;50828;53.756;21.140;2023-04-01T09:06:33;98085.38;;;7.80;73.06
64460;BME280;50828;53.756;21.140;2023-04-01T09:11:58;98094.41;;;7.86;73.15
64460;BME280;50828;53.756;21.140;2023-04-01T09:17:31;98096.68;;;7.92;73.18
64460;BME280;50828;53.756;21.140;2023-04-01T09:22:53;98102.27;;;7.96;73.34
64460;BME280;50828;53.756;21.140;2023-04-01T09:28:12;98102.31;;;7.98;73.11
64460;BME280;50828;53.756;21.140;2023-04-01T09:39:36;98110.73;;;8.01;73.03
64460;BME280;50828;53.756;21.140;2023-04-01T09:44:50;98123.65;;;8.04;72.87
64460;BME280;50828;53.756;21.140;2023-04-01T09:50:17;98127.52;;;8.07;73.14
64460;BME280;50828;53.756;21.140;2023-04-01T09:56:06;98129.66;;;8.09;73.00
64460;BME280;50828;53.756;21.140;2023-04-01T10:07:14;98136.23;;;8.13;72.84
64460;BME280;50828;53.756;21.140;2023-04-01T10:12:52;98136.41;;;8.13;73.01
64460;BME280;50828;53.756;21.140;2023-04-01T10:18:37;98144.31;;;8.16;73.01
64460;BME280;50828;53.756;21.140;2023-04-01T10:24:08;98147.50;;;8.18;73.13
64460;BME280;50828;53.756;21.140;2023-04-01T10:30:16;98142.92;;;8.21;72.78
64460;BME280;50828;53.756;21.140;2023-04-01T10:53:26;98162.98;;;8.49;72.55
64460;BME280;50828;53.756;21.140;2023-04-01T11:11:28;98178.95;;;8.47;72.50
64460;BME280;50828;53.756;21.140;2023-04-01T11:16:50;98183.55;;;8.46;72.28
64460;BME280;50828;53.756;21.140;2023-04-01T11:22:18;98190.27;;;8.45;72.41
64460;BME280;50828;53.756;21.140;2023-04-01T11:27:45;98192.84;;;8.43;72.38
64460;BME280;50828;53.756;21.140;2023-04-01T11:33:01;98194.77;;;8.43;72.49
64460;BME280;50828;53.756;21.140;2023-04-01T11:38:22;98198.33;;;8.45;72.40
64460;BME280;50828;53.756;21.140;2023-04-01T11:43:40;98202.16;;;8.48;72.61
64460;BME280;50828;53.756;21.140;2023-04-01T11:49:33;98205.30;;;8.51;72.57
64460;BME280;50828;53.756;21.140;2023-04-01T11:55:04;98211.65;;;8.56;72.42
64460;BME280;50828;53.756;21.140;2023-04-01T12:00:25;98218.50;;;8.59;72.51
64460;BME280;50828;53.756;21.140;2023-04-01T12:05:44;98222.27;;;8.61;72.40
64460;BME280;50828;53.756;21.140;2023-04-01T12:10:56;98228.94;;;8.63;72.09
64460;BME280;50828;53.756;21.140;2023-04-01T12:16:15;98230.17;;;8.63;72.27
64460;BME280;50828;53.756;21.140;2023-04-01T12:21:32;98237.48;;;8.64;72.14
64460;BME280;50828;53.756;21.140;2023-04-01T12:26:58;98238.84;;;8.62;72.15
64460;BME280;50828;53.756;21.140;2023-04-01T12:32:17;98247.44;;;8.62;72.30
64460;BME280;50828;53.756;21.140;2023-04-01T12:37:39;98246.28;;;8.61;72.22
64460;BME280;50828;53.756;21.140;2023-04-01T12:42:59;98250.16;;;8.63;72.33
64460;BME280;50828;53.756;21.140;2023-04-01T12:48:31;98257.26;;;8.66;71.99
64460;BME280;50828;53.756;21.140;2023-04-01T12:59:26;98269.49;;;8.69;72.11
64460;BME280;50828;53.756;21.140;2023-04-01T13:04:56;98271.94;;;8.70;72.19
64460;BME280;50828;53.756;21.140;2023-04-01T13:10:11;98277.30;;;8.71;72.12
64460;BME280;50828;53.756;21.140;2023-04-01T13:15:27;98284.05;;;8.72;72.24
64460;BME280;50828;53.756;21.140;2023-04-01T13:20:45;98290.91;;;8.72;71.98
64460;BME280;50828;53.756;21.140;2023-04-01T13:26:09;98298.45;;;8.72;72.16
64460;BME280;50828;53.756;21.140;2023-04-01T13:31:31;98300.61;;;8.71;71.95
64460;BME280;50828;53.756;21.140;2023-04-01T13:36:46;98305.02;;;8.71;71.98
64460;BME280;50828;53.756;21.140;2023-04-01T13:42:06;98309.20;;;8.71;72.11
64460;BME280;50828;53.756;21.140;2023-04-01T13:53:12;98321.23;;;8.75;71.73
64460;BME280;50828;53.756;21.140;2023-04-01T13:58:42;98324.19;;;8.76;71.85
64460;BME280;50828;53.756;21.140;2023-04-01T14:04:31;98331.33;;;8.77;71.77
64460;BME280;50828;53.756;21.140;2023-04-01T14:15:33;98339.14;;;8.75;71.63
64460;BME280;50828;53.756;21.140;2023-04-01T14:20:51;98348.76;;;8.73;71.50
64460;BME280;50828;53.756;21.140;2023-04-01T14:26:25;98355.30;;;8.72;71.73
64460;BME280;50828;53.756;21.140;2023-04-01T14:32:00;98356.98;;;8.70;71.52
64460;BME280;50828;53.756;21.140;2023-04-01T14:37:18;98363.54;;;8.69;71.48
64460;BME280;50828;53.756;21.140;2023-04-01T14:42:52;98367.89;;;8.67;71.56
64460;BME280;50828;53.756;21.140;2023-04-01T14:48:13;98377.13;;;8.65;71.55
64460;BME280;50828;53.756;21.140;2023-04-01T14:53:29;98385.13;;;8.63;71.69
64460;BME280;50828;53.756;21.140;2023-04-01T14:58:49;98391.82;;;8.60;71.34
64460;BME280;50828;53.756;21.140;2023-04-01T15:04:02;98400.23;;;8.57;71.26
64460;BME280;50828;53.756;21.140;2023-04-01T15:09:17;98403.61;;;8.50;71.01
64460;BME280;50828;53.756;21.140;2023-04-01T15:14:42;98408.94;;;8.46;71.05
64460;BME280;50828;53.756;21.140;2023-04-01T15:20:07;98417.89;;;8.43;71.13
64460;BME280;50828;53.756;21.140;2023-04-01T15:25:33;98417.44;;;8.36;70.97
64460;BME280;50828;53.756;21.140;2023-04-01T15:30:50;98425.59;;;8.34;70.93
64460;BME280;50828;53.756;21.140;2023-04-01T15:36:08;98434.51;;;8.31;71.34
64460;BME280;50828;53.756;21.140;2023-04-01T15:41:26;98438.13;;;8.29;71.01
64460;BME280;50828;53.756;21.140;2023-04-01T15:46:44;98445.41;;;8.27;71.12
64460;BME280;50828;53.756;21.140;2023-04-01T15:52:09;98449.94;;;8.25;71.05
64460;BME280;50828;53.756;21.140;2023-04-01T15:57:26;98456.86;;;8.23;71.10
64460;BME280;50828;53.756;21.140;2023-04-01T16:02:43;98464.77;;;8.23;71.06
64460;BME280;50828;53.756;21.140;2023-04-01T16:08:02;98475.23;;;8.21;71.24
64460;BME280;50828;53.756;21.140;2023-04-01T16:13:27;98485.59;;;8.21;71.15
64460;BME280;50828;53.756;21.140;2023-04-01T16:18:52;98489.63;;;8.18;70.98
64460;BME280;50828;53.756;21.140;2023-04-01T16:24:10;98494.98;;;8.16;71.11
64460;BME280;50828;53.756;21.140;2023-04-01T16:29:27;98502.14;;;8.14;71.03
64460;BME280;50828;53.756;21.140;2023-04-01T16:34:41;98507.64;;;8.13;70.89
64460;BME280;50828;53.756;21.140;2023-04-01T16:39:54;98508.88;;;8.09;70.86
64460;BME280;50828;53.756;21.140;2023-04-01T16:45:23;98516.04;;;8.07;70.64
64460;BME280;50828;53.756;21.140;2023-04-01T16:50:41;98526.46;;;8.05;70.88
64460;BME280;50828;53.756;21.140;2023-04-01T16:55:54;98535.83;;;8.04;70.60
64460;BME280;50828;53.756;21.140;2023-04-01T17:01:10;98544.00;;;8.02;70.59
64460;BME280;50828;53.756;21.140;2023-04-01T17:06:28;98552.06;;;7.99;70.70
64460;BME280;50828;53.756;21.140;2023-04-01T17:11:42;98563.83;;;7.99;70.63
64460;BME280;50828;53.756;21.140;2023-04-01T17:17:01;98570.06;;;7.97;70.67
64460;BME280;50828;53.756;21.140;2023-04-01T17:22:18;98570.36;;;7.94;70.65
64460;BME280;50828;53.756;21.140;2023-04-01T17:27:37;98584.11;;;7.93;70.56
64460;BME280;50828;53.756;21.140;2023-04-01T17:32:57;98598.80;;;7.90;70.59
64460;BME280;50828;53.756;21.140;2023-04-01T17:38:17;98605.40;;;7.88;70.66
64460;BME280;50828;53.756;21.140;2023-04-01T17:43:33;98608.71;;;7.85;70.49
64460;BME280;50828;53.756;21.140;2023-04-01T17:48:49;98622.46;;;7.83;70.57
64460;BME280;50828;53.756;21.140;2023-04-01T17:54:10;98627.89;;;7.80;70.30
64460;BME280;50828;53.756;21.140;2023-04-01T17:59:26;98636.59;;;7.78;70.24
64460;BME280;50828;53.756;21.140;2023-04-01T18:04:50;98639.88;;;7.76;70.25
64460;BME280;50828;53.756;21.140;2023-04-01T18:10:08;98646.81;;;7.73;70.22
64460;BME280;50828;53.756;21.140;2023-04-01T18:15:29;98652.65;;;7.69;70.10
64460;BME280;50828;53.756;21.140;2023-04-01T18:20:46;98658.75;;;7.66;70.12
64460;BME280;50828;53.756;21.140;2023-04-01T18:26:08;98666.58;;;7.64;70.08
64460;BME280;50828;53.756;21.140;2023-04-01T18:31:20;98671.86;;;7.60;70.11
64460;BME280;50828;53.756;21.140;2023-04-01T18:36:39;98676.52;;;7.58;70.33
64460;BME280;50828;53.756;21.140;2023-04-01T18:41:56;98677.52;;;7.52;70.05
64460;BME280;50828;53.756;21.140;2023-04-01T18:47:15;98689.54;;;7.53;70.22
64460;BME280;50828;53.756;21.140;2023-04-01T18:52:27;98695.60;;;7.51;70.07
64460;BME280;50828;53.756;21.140;2023-04-01T18:57:45;98697.69;;;7.48;70.06
64460;BME280;50828;53.756;21.140;2023-04-01T19:03:00;98696.80;;;7.45;70.31
64460;BME280;50828;53.756;21.140;2023-04-01T19:08:19;98708.31;;;7.46;69.89
64460;BME280;50828;53.756;21.140;2023-04-01T19:13:30;98714.81;;;7.42;70.09
64460;BME280;50828;53.756;21.140;2023-04-01T19:18:57;98711.27;;;7.35;69.80
64460;BME280;50828;53.756;21.140;2023-04-01T19:24:35;98725.02;;;7.37;69.96
64460;BME280;50828;53.756;21.140;2023-04-01T19:29:54;98723.63;;;7.33;69.98
64460;BME280;50828;53.756;21.140;2023-04-01T19:35:16;98728.83;;;7.31;69.78
64460;BME280;50828;53.756;21.140;2023-04-01T19:40:47;98736.98;;;7.29;70.00
64460;BME280;50828;53.756;21.140;2023-04-01T19:46:05;98742.73;;;7.26;69.97
64460;BME280;50828;53.756;21.140;2023-04-01T19:51:19;98751.40;;;7.24;69.96
64460;BME280;50828;53.756;21.140;2023-04-01T19:56:37;98760.84;;;7.21;69.81
64460;BME280;50828;53.756;21.140;2023-04-01T20:01:51;98770.00;;;7.20;70.17
64460;BME280;50828;53.756;21.140;2023-04-01T20:07:04;98779.25;;;7.16;69.83
64460;BME280;50828;53.756;21.140;2023-04-01T20:12:21;98785.20;;;7.13;70.12
64460;BME280;50828;53.756;21.140;2023-04-01T20:17:38;98792.77;;;7.08;70.17
64460;BME280;50828;53.756;21.140;2023-04-01T20:23:11;98806.19;;;7.06;69.88
64460;BME280;50828;53.756;21.140;2023-04-01T20:28:32;98811.14;;;7.01;69.72
64460;BME280;50828;53.756;21.140;2023-04-01T20:34:00;98822.26;;;6.95;69.61
64460;BME280;50828;53.756;21.140;2023-04-01T20:44:54;98832.64;;;6.82;69.86
64460;BME280;50828;53.756;21.140;2023-04-01T20:50:17;98838.85;;;6.76;69.76
64460;BME280;50828;53.756;21.140;2023-04-01T21:01:10;98849.77;;;6.67;69.90
64460;BME280;50828;53.756;21.140;2023-04-01T21:06:32;98856.96;;;6.62;70.06
64460;BME280;50828;53.756;21.140;2023-04-01T21:11:49;98865.75;;;6.57;69.96
64460;BME280;50828;53.756;21.140;2023-04-01T21:17:06;98869.77;;;6.54;69.93
64460;BME280;50828;53.756;21.140;2023-04-01T21:28:05;98882.27;;;6.44;69.87
64460;BME280;50828;53.756;21.140;2023-04-01T21:33:26;98883.26;;;6.37;69.92
64460;BME280;50828;53.756;21.140;2023-04-01T21:38:51;98886.09;;;6.32;70.13
64460;BME280;50828;53.756;21.140;2023-04-01T21:44:23;98889.13;;;6.26;70.19
64460;BME280;50828;53.756;21.140;2023-04-01T21:49:57;98893.23;;;6.20;70.21
64460;BME280;50828;53.756;21.140;2023-04-01T22:00:50;98907.77;;;6.11;70.04
64460;BME280;50828;53.756;21.140;2023-04-01T22:06:18;98906.83;;;6.04;70.01
64460;BME280;50828;53.756;21.140;2023-04-01T22:11:36;98912.23;;;6.00;70.18
64460;BME280;50828;53.756;21.140;2023-04-01T22:16:56;98915.20;;;5.95;69.97
64460;BME280;50828;53.756;21.140;2023-04-01T22:22:15;98916.16;;;5.88;69.87
64460;BME280;50828;53.756;21.140;2023-04-01T22:27:33;98922.14;;;5.83;69.97
64460;BME280;50828;53.756;21.140;2023-04-01T22:32:45;98933.20;;;5.77;69.96
64460;BME280;50828;53.756;21.140;2023-04-01T22:37:59;98940.88;;;5.73;69.85
64460;BME280;50828;53.756;21.140;2023-04-01T22:43:13;98950.86;;;5.67;70.04
64460;BME280;50828;53.756;21.140;2023-04-01T22:48:29;98952.77;;;5.63;70.23
64460;BME280;50828;53.756;21.140;2023-04-01T22:53:56;98957.46;;;5.59;70.00
64460;BME280;50828;53.756;21.140;2023-04-01T22:59:10;98961.25;;;5.56;70.15
64460;BME280;50828;53.756;21.140;2023-04-01T23:04:28;98968.32;;;5.54;70.27
64460;BME280;50828;53.756;21.140;2023-04-01T23:09:38;98970.60;;;5.49;70.12
64460;BME280;50828;53.756;21.140;2023-04-01T23:14:49;98976.27;;;5.46;70.03
64460;BME280;50828;53.756;21.140;2023-04-01T23:20:02;98976.44;;;5.43;70.26
64460;BME280;50828;53.756;21.140;2023-04-01T23:25:25;98983.70;;;5.39;70.19
64460;BME280;50828;53.756;21.140;2023-04-01T23:30:51;98989.27;;;5.35;70.10
64460;BME280;50828;53.756;21.140;2023-04-01T23:36:00;98990.92;;;5.29;70.08
64460;BME280;50828;53.756;21.140;2023-04-01T23:41:25;99000.04;;;5.27;70.09
64460;BME280;50828;53.756;21.140;2023-04-01T23:46:35;99006.48;;;5.23;70.16
64460;BME280;50828;53.756;21.140;2023-04-01T23:51:52;99010.85;;;5.18;70.02
64460;BME280;50828;53.756;21.140;2023-04-01T23:57:02;99014.48;;;5.13;69.99
